sensor_id;sensor_type;location;lat;lon;timestamp;temperature;humidity
10964;DHT22;5534;48.784;9.190;2023-08-21T00:01:10;26.50;99.90
10964;DHT22;5534;48.784;9.190;2023-08-21T00:03:36;26.60;99.90
10964;DHT22;5534;48.784;9.190;2023-08-21T00:06:01;26.50;99.90
10964;DHT22;5534;48.784;9.190;2023-08-21T00:08:27;26.50;99.90
10964;DHT22;5534;48.784;9.190;2023-08-21T00:10:53;26.50;99.90
10964;DHT22;5534;48.784;9.190;2023-08-21T00:13:18;26.50;99.90
10964;DHT22;5534;48.784;9.190;2023-08-21T00:15:44;26.60;99.90
10964;DHT22;5534;48.784;9.190;2023-08-21T00:18:10;26.80;99.90
10964;DHT22;5534;48.784;9.190;2023-08-21T00:20:36;26.70;99.90
10964;DHT22;5534;48.784;9.190;2023-08-21T00:23:01;26.60;99.90
10964;DHT22;5534;48.784;9.190;2023-08-21T00:25:27;26.50;99.90
10964;DHT22;5534;48.784;9.190;2023-08-21T00:27:53;26.40;99.90
10964;DHT22;5534;48.784;9.190;2023-08-21T00:30:19;26.40;99.90
10964;DHT22;5534;48.784;9.190;2023-08-21T00:32:45;26.30;99.90
10964;DHT22;5534;48.784;9.190;2023-08-21T00:35:10;26.30;99.90
10964;DHT22;5534;48.784;9.190;2023-08-21T00:37:36;26.30;99.90
10964;DHT22;5534;48.784;9.190;2023-08-21T00:40:02;26.30;99.90
10964;DHT22;5534;48.784;9.190;2023-08-21T00:42:28;26.50;99.90
10964;DHT22;5534;48.784;9.190;2023-08-21T00:44:54;26.60;99.90
10964;DHT22;5534;48.784;9.190;2023-08-21T00:47:20;26.30;99.90
10964;DHT22;5534;48.784;9.190;2023-08-21T00:49:45;26.10;99.90
10964;DHT22;5534;48.784;9.190;2023-08-21T00:52:12;26.00;99.90
10964;DHT22;5534;48.784;9.190;2023-08-21T00:54:40;25.90;99.90
10964;DHT22;5534;48.784;9.190;2023-08-21T00:57:06;25.90;99.90
10964;DHT22;5534;48.784;9.190;2023-08-21T00:59:32;25.80;99.90
10964;DHT22;5534;48.784;9.190;2023-08-21T01:01:59;25.80;99.90
10964;DHT22;5534;48.784;9.190;2023-08-21T01:04:24;25.70;99.90
10964;DHT22;5534;48.784;9.190;2023-08-21T01:06:50;25.70;99.90
10964;DHT22;5534;48.784;9.190;2023-08-21T01:09:27;25.70;99.90
10964;DHT22;5534;48.784;9.190;2023-08-21T01:12:12;25.70;99.90
10964;DHT22;5534;48.784;9.190;2023-08-21T01:14:59;25.70;99.90
10964;DHT22;5534;48.784;9.190;2023-08-21T01:17:27;25.60;99.90
10964;DHT22;5534;48.784;9.190;2023-08-21T01:19:54;25.40;99.90
10964;DHT22;5534;48.784;9.190;2023-08-21T01:22:24;25.40;99.90
10964;DHT22;5534;48.784;9.190;2023-08-21T01:24:50;25.50;99.90
10964;DHT22;5534;48.784;9.190;2023-08-21T01:27:16;25.50;99.90
10964;DHT22;5534;48.784;9.190;2023-08-21T01:29:42;25.50;99.90
10964;DHT22;5534;48.784;9.190;2023-08-21T01:34:47;25.90;99.90
10964;DHT22;5534;48.784;9.190;2023-08-21T01:37:15;25.60;99.90
10964;DHT22;5534;48.784;9.190;2023-08-21T01:39:42;25.60;99.90
10964;DHT22;5534;48.784;9.190;2023-08-21T01:42:07;25.60;99.90
10964;DHT22;5534;48.784;9.190;2023-08-21T01:44:33;25.50;99.90
10964;DHT22;5534;48.784;9.190;2023-08-21T01:46:59;25.30;99.90
10964;DHT22;5534;48.784;9.190;2023-08-21T01:49:25;25.30;99.90
10964;DHT22;5534;48.784;9.190;2023-08-21T01:51:50;25.30;99.90
10964;DHT22;5534;48.784;9.190;2023-08-21T01:54:16;25.30;99.90
10964;DHT22;5534;48.784;9.190;2023-08-21T01:56:42;25.30;99.90
10964;DHT22;5534;48.784;9.190;2023-08-21T01:59:08;25.40;99.90
10964;DHT22;5534;48.784;9.190;2023-08-21T02:01:33;25.60;99.90
10964;DHT22;5534;48.784;9.190;2023-08-21T02:03:59;25.50;99.90
10964;DHT22;5534;48.784;9.190;2023-08-21T02:06:25;25.40;99.90
10964;DHT22;5534;48.784;9.190;2023-08-21T02:08:51;25.70;99.90
10964;DHT22;5534;48.784;9.190;2023-08-21T02:11:16;25.80;99.90
10964;DHT22;5534;48.784;9.190;2023-08-21T02:13:42;25.90;99.90
10964;DHT22;5534;48.784;9.190;2023-08-21T02:16:08;25.90;99.90
10964;DHT22;5534;48.784;9.190;2023-08-21T02:18:33;26.00;99.90
10964;DHT22;5534;48.784;9.190;2023-08-21T02:21:02;26.00;99.90
10964;DHT22;5534;48.784;9.190;2023-08-21T02:23:28;25.90;99.90
10964;DHT22;5534;48.784;9.190;2023-08-21T02:25:55;25.90;99.90
10964;DHT22;5534;48.784;9.190;2023-08-21T02:28:21;25.70;99.90
10964;DHT22;5534;48.784;9.190;2023-08-21T02:30:46;25.40;99.90
10964;DHT22;5534;48.784;9.190;2023-08-21T02:33:12;25.50;99.90
10964;DHT22;5534;48.784;9.190;2023-08-21T02:35:39;25.60;99.90
10964;DHT22;5534;48.784;9.190;2023-08-21T02:38:05;25.70;99.90
10964;DHT22;5534;48.784;9.190;2023-08-21T02:40:33;25.80;99.90
10964;DHT22;5534;48.784;9.190;2023-08-21T02:42:59;25.70;99.90
10964;DHT22;5534;48.784;9.190;2023-08-21T02:45:24;25.50;99.90
10964;DHT22;5534;48.784;9.190;2023-08-21T02:47:51;25.50;99.90
10964;DHT22;5534;48.784;9.190;2023-08-21T02:50:17;25.50;99.90
10964;DHT22;5534;48.784;9.190;2023-08-21T02:52:43;25.50;99.90
10964;DHT22;5534;48.784;9.190;2023-08-21T02:55:08;25.70;99.90
10964;DHT22;5534;48.784;9.190;2023-08-21T02:57:34;25.70;99.90
10964;DHT22;5534;48.784;9.190;2023-08-21T03:00:00;25.70;99.90
10964;DHT22;5534;48.784;9.190;2023-08-21T03:02:26;25.70;99.90
10964;DHT22;5534;48.784;9.190;2023-08-21T03:04:52;25.70;99.90
10964;DHT22;5534;48.784;9.190;2023-08-21T03:07:18;25.70;99.90
10964;DHT22;5534;48.784;9.190;2023-08-21T03:09:45;25.60;99.90
10964;DHT22;5534;48.784;9.190;2023-08-21T03:12:12;25.40;99.90
10964;DHT22;5534;48.784;9.190;2023-08-21T03:14:38;25.40;99.90
10964;DHT22;5534;48.784;9.190;2023-08-21T03:17:04;25.20;99.90
10964;DHT22;5534;48.784;9.190;2023-08-21T03:19:30;25.00;99.90
10964;DHT22;5534;48.784;9.190;2023-08-21T03:21:55;25.00;99.90
10964;DHT22;5534;48.784;9.190;2023-08-21T03:24:21;25.20;99.90
10964;DHT22;5534;48.784;9.190;2023-08-21T03:26:47;25.30;99.90
10964;DHT22;5534;48.784;9.190;2023-08-21T03:29:13;25.30;99.90
10964;DHT22;5534;48.784;9.190;2023-08-21T03:31:39;25.30;99.90
10964;DHT22;5534;48.784;9.190;2023-08-21T03:34:04;25.30;99.90
10964;DHT22;5534;48.784;9.190;2023-08-21T03:36:30;25.20;99.90
10964;DHT22;5534;48.784;9.190;2023-08-21T03:39:00;25.20;99.90
10964;DHT22;5534;48.784;9.190;2023-08-21T03:41:27;25.00;99.90
10964;DHT22;5534;48.784;9.190;2023-08-21T03:43:53;25.00;99.90
10964;DHT22;5534;48.784;9.190;2023-08-21T03:46:19;25.00;99.90
10964;DHT22;5534;48.784;9.190;2023-08-21T03:48:45;25.00;99.90
10964;DHT22;5534;48.784;9.190;2023-08-21T03:51:10;24.90;99.90
10964;DHT22;5534;48.784;9.190;2023-08-21T03:53:36;25.00;99.90
10964;DHT22;5534;48.784;9.190;2023-08-21T03:56:02;25.00;99.90
10964;DHT22;5534;48.784;9.190;2023-08-21T03:58:28;25.10;99.90
10964;DHT22;5534;48.784;9.190;2023-08-21T04:00:54;25.30;99.90
10964;DHT22;5534;48.784;9.190;2023-08-21T04:03:20;25.30;99.90
10964;DHT22;5534;48.784;9.190;2023-08-21T04:05:46;25.30;99.90
10964;DHT22;5534;48.784;9.190;2023-08-21T04:08:12;25.30;99.90
10964;DHT22;5534;48.784;9.190;2023-08-21T04:10:38;25.30;99.90
10964;DHT22;5534;48.784;9.190;2023-08-21T04:13:05;25.30;99.90
10964;DHT22;5534;48.784;9.190;2023-08-21T04:15:33;25.40;99.90
10964;DHT22;5534;48.784;9.190;2023-08-21T04:18:00;25.40;99.90
10964;DHT22;5534;48.784;9.190;2023-08-21T04:20:26;25.40;99.90
10964;DHT22;5534;48.784;9.190;2023-08-21T04:22:52;25.20;99.90
10964;DHT22;5534;48.784;9.190;2023-08-21T04:25:18;25.20;99.90
10964;DHT22;5534;48.784;9.190;2023-08-21T04:27:44;25.10;99.90
10964;DHT22;5534;48.784;9.190;2023-08-21T04:30:10;25.20;99.90
10964;DHT22;5534;48.784;9.190;2023-08-21T04:32:36;25.10;99.90
10964;DHT22;5534;48.784;9.190;2023-08-21T04:35:02;25.10;99.90
10964;DHT22;5534;48.784;9.190;2023-08-21T04:37:27;25.10;99.90
10964;DHT22;5534;48.784;9.190;2023-08-21T04:39:53;25.00;99.90
10964;DHT22;5534;48.784;9.190;2023-08-21T04:42:20;25.00;99.90
10964;DHT22;5534;48.784;9.190;2023-08-21T04:44:46;25.00;99.90
10964;DHT22;5534;48.784;9.190;2023-08-21T04:47:25;24.90;99.90
10964;DHT22;5534;48.784;9.190;2023-08-21T04:49:55;24.90;99.90
10964;DHT22;5534;48.784;9.190;2023-08-21T04:52:24;24.80;99.90
10964;DHT22;5534;48.784;9.190;2023-08-21T04:54:50;24.80;99.90
10964;DHT22;5534;48.784;9.190;2023-08-21T04:57:16;24.80;99.90
10964;DHT22;5534;48.784;9.190;2023-08-21T04:59:43;24.70;99.90
10964;DHT22;5534;48.784;9.190;2023-08-21T05:02:09;24.60;99.90
10964;DHT22;5534;48.784;9.190;2023-08-21T05:04:38;24.60;99.90
10964;DHT22;5534;48.784;9.190;2023-08-21T05:07:04;24.80;99.90
10964;DHT22;5534;48.784;9.190;2023-08-21T05:09:33;25.00;99.90
10964;DHT22;5534;48.784;9.190;2023-08-21T05:11:59;25.10;99.90
10964;DHT22;5534;48.784;9.190;2023-08-21T05:14:25;25.10;99.90
10964;DHT22;5534;48.784;9.190;2023-08-21T05:16:51;25.10;99.90
10964;DHT22;5534;48.784;9.190;2023-08-21T05:19:17;25.10;99.90
10964;DHT22;5534;48.784;9.190;2023-08-21T05:21:43;25.10;99.90
10964;DHT22;5534;48.784;9.190;2023-08-21T05:24:10;25.10;99.90
10964;DHT22;5534;48.784;9.190;2023-08-21T05:26:36;25.10;99.90
10964;DHT22;5534;48.784;9.190;2023-08-21T05:29:03;25.10;99.90
10964;DHT22;5534;48.784;9.190;2023-08-21T05:31:29;25.10;99.90
10964;DHT22;5534;48.784;9.190;2023-08-21T05:33:55;25.00;99.90
10964;DHT22;5534;48.784;9.190;2023-08-21T05:36:21;24.90;99.90
10964;DHT22;5534;48.784;9.190;2023-08-21T05:38:47;25.10;99.90
10964;DHT22;5534;48.784;9.190;2023-08-21T05:41:14;25.10;99.90
10964;DHT22;5534;48.784;9.190;2023-08-21T05:43:40;25.00;99.90
10964;DHT22;5534;48.784;9.190;2023-08-21T05:46:08;25.10;99.90
10964;DHT22;5534;48.784;9.190;2023-08-21T05:48:34;25.20;99.90
10964;DHT22;5534;48.784;9.190;2023-08-21T05:51:00;25.30;99.90
10964;DHT22;5534;48.784;9.190;2023-08-21T05:53:26;25.30;99.90
10964;DHT22;5534;48.784;9.190;2023-08-21T05:55:52;25.30;99.90
10964;DHT22;5534;48.784;9.190;2023-08-21T05:58:18;25.30;99.90
10964;DHT22;5534;48.784;9.190;2023-08-21T06:00:44;25.30;99.90
10964;DHT22;5534;48.784;9.190;2023-08-21T06:03:10;25.10;99.90
10964;DHT22;5534;48.784;9.190;2023-08-21T06:05:36;25.20;99.90
10964;DHT22;5534;48.784;9.190;2023-08-21T06:08:02;25.30;99.90
10964;DHT22;5534;48.784;9.190;2023-08-21T06:10:27;25.30;99.90
10964;DHT22;5534;48.784;9.190;2023-08-21T06:12:53;25.30;99.90
10964;DHT22;5534;48.784;9.190;2023-08-21T06:15:19;25.40;99.90
10964;DHT22;5534;48.784;9.190;2023-08-21T06:17:45;25.50;99.90
10964;DHT22;5534;48.784;9.190;2023-08-21T06:20:11;25.50;99.90
10964;DHT22;5534;48.784;9.190;2023-08-21T06:22:39;25.50;99.90
10964;DHT22;5534;48.784;9.190;2023-08-21T06:25:05;25.60;99.90
10964;DHT22;5534;48.784;9.190;2023-08-21T06:27:31;25.50;99.90
10964;DHT22;5534;48.784;9.190;2023-08-21T06:29:57;25.60;99.90
10964;DHT22;5534;48.784;9.190;2023-08-21T06:32:22;25.60;99.90
10964;DHT22;5534;48.784;9.190;2023-08-21T06:34:48;25.60;99.90
10964;DHT22;5534;48.784;9.190;2023-08-21T06:37:14;25.70;99.90
10964;DHT22;5534;48.784;9.190;2023-08-21T06:39:40;25.80;99.90
10964;DHT22;5534;48.784;9.190;2023-08-21T06:42:06;25.90;99.90
10964;DHT22;5534;48.784;9.190;2023-08-21T06:44:31;25.90;99.90
10964;DHT22;5534;48.784;9.190;2023-08-21T06:46:57;26.10;99.90
10964;DHT22;5534;48.784;9.190;2023-08-21T06:49:23;26.10;99.90
10964;DHT22;5534;48.784;9.190;2023-08-21T06:51:49;26.20;99.90
10964;DHT22;5534;48.784;9.190;2023-08-21T06:54:15;26.30;99.90
10964;DHT22;5534;48.784;9.190;2023-08-21T06:56:40;26.40;99.90
10964;DHT22;5534;48.784;9.190;2023-08-21T06:59:06;26.40;99.90
10964;DHT22;5534;48.784;9.190;2023-08-21T07:01:32;26.70;99.90
10964;DHT22;5534;48.784;9.190;2023-08-21T07:03:58;27.00;99.90
10964;DHT22;5534;48.784;9.190;2023-08-21T07:06:23;27.80;99.90
10964;DHT22;5534;48.784;9.190;2023-08-21T07:08:49;28.50;99.90
10964;DHT22;5534;48.784;9.190;2023-08-21T07:11:15;29.00;99.90
10964;DHT22;5534;48.784;9.190;2023-08-21T07:13:42;29.40;99.90
10964;DHT22;5534;48.784;9.190;2023-08-21T07:16:08;30.10;99.90
10964;DHT22;5534;48.784;9.190;2023-08-21T07:18:35;30.80;99.90
10964;DHT22;5534;48.784;9.190;2023-08-21T07:21:04;31.30;99.90
10964;DHT22;5534;48.784;9.190;2023-08-21T07:23:30;31.50;99.90
10964;DHT22;5534;48.784;9.190;2023-08-21T07:25:57;31.70;99.90
10964;DHT22;5534;48.784;9.190;2023-08-21T07:28:24;31.70;99.90
10964;DHT22;5534;48.784;9.190;2023-08-21T07:30:59;31.70;99.90
10964;DHT22;5534;48.784;9.190;2023-08-21T07:33:27;31.80;99.90
10964;DHT22;5534;48.784;9.190;2023-08-21T07:36:01;31.40;99.90
10964;DHT22;5534;48.784;9.190;2023-08-21T07:38:27;31.20;99.90
10964;DHT22;5534;48.784;9.190;2023-08-21T07:41:04;31.10;99.90
10964;DHT22;5534;48.784;9.190;2023-08-21T07:43:30;31.70;99.90
10964;DHT22;5534;48.784;9.190;2023-08-21T07:45:56;32.10;99.90
10964;DHT22;5534;48.784;9.190;2023-08-21T07:48:22;32.00;99.90
10964;DHT22;5534;48.784;9.190;2023-08-21T07:50:52;31.70;99.90
10964;DHT22;5534;48.784;9.190;2023-08-21T07:53:18;31.80;99.90
10964;DHT22;5534;48.784;9.190;2023-08-21T07:55:45;31.80;99.90
10964;DHT22;5534;48.784;9.190;2023-08-21T07:58:11;32.00;99.90
10964;DHT22;5534;48.784;9.190;2023-08-21T08:00:38;32.10;99.90
10964;DHT22;5534;48.784;9.190;2023-08-21T08:03:05;31.70;99.90
10964;DHT22;5534;48.784;9.190;2023-08-21T08:05:31;31.40;99.90
10964;DHT22;5534;48.784;9.190;2023-08-21T08:07:58;31.50;99.90
10964;DHT22;5534;48.784;9.190;2023-08-21T08:10:24;31.40;99.90
10964;DHT22;5534;48.784;9.190;2023-08-21T08:12:50;31.30;99.90
10964;DHT22;5534;48.784;9.190;2023-08-21T08:15:17;31.40;99.90
10964;DHT22;5534;48.784;9.190;2023-08-21T08:17:43;31.80;99.90
10964;DHT22;5534;48.784;9.190;2023-08-21T08:20:12;31.60;99.90
10964;DHT22;5534;48.784;9.190;2023-08-21T08:22:38;31.30;99.90
10964;DHT22;5534;48.784;9.190;2023-08-21T08:25:04;31.00;99.90
10964;DHT22;5534;48.784;9.190;2023-08-21T08:27:32;30.90;99.90
10964;DHT22;5534;48.784;9.190;2023-08-21T08:29:58;31.00;99.90
10964;DHT22;5534;48.784;9.190;2023-08-21T08:32:24;31.00;99.90
10964;DHT22;5534;48.784;9.190;2023-08-21T08:34:51;30.90;99.90
10964;DHT22;5534;48.784;9.190;2023-08-21T08:37:17;31.00;99.90
10964;DHT22;5534;48.784;9.190;2023-08-21T08:39:43;31.00;99.90
10964;DHT22;5534;48.784;9.190;2023-08-21T08:42:08;30.90;99.90
10964;DHT22;5534;48.784;9.190;2023-08-21T08:44:35;30.80;99.90
10964;DHT22;5534;48.784;9.190;2023-08-21T08:47:03;30.90;99.90
10964;DHT22;5534;48.784;9.190;2023-08-21T08:49:30;30.90;99.90
10964;DHT22;5534;48.784;9.190;2023-08-21T08:51:57;30.80;99.90
10964;DHT22;5534;48.784;9.190;2023-08-21T08:54:24;30.80;99.90
10964;DHT22;5534;48.784;9.190;2023-08-21T08:56:51;30.90;99.90
10964;DHT22;5534;48.784;9.190;2023-08-21T08:59:17;30.90;99.90
10964;DHT22;5534;48.784;9.190;2023-08-21T09:01:43;30.80;99.90
10964;DHT22;5534;48.784;9.190;2023-08-21T09:04:09;30.70;99.90
10964;DHT22;5534;48.784;9.190;2023-08-21T09:06:35;30.50;99.90
10964;DHT22;5534;48.784;9.190;2023-08-21T09:09:02;30.40;99.90
10964;DHT22;5534;48.784;9.190;2023-08-21T09:11:28;30.40;99.90
10964;DHT22;5534;48.784;9.190;2023-08-21T09:13:55;30.30;99.90
10964;DHT22;5534;48.784;9.190;2023-08-21T09:16:23;30.40;99.90
10964;DHT22;5534;48.784;9.190;2023-08-21T09:18:54;30.60;99.90
10964;DHT22;5534;48.784;9.190;2023-08-21T09:21:23;30.90;99.90
10964;DHT22;5534;48.784;9.190;2023-08-21T09:23:58;31.20;99.90
10964;DHT22;5534;48.784;9.190;2023-08-21T09:26:24;31.20;99.90
10964;DHT22;5534;48.784;9.190;2023-08-21T09:28:51;30.90;99.90
10964;DHT22;5534;48.784;9.190;2023-08-21T09:31:30;30.80;99.90
10964;DHT22;5534;48.784;9.190;2023-08-21T09:33:57;30.50;99.90
10964;DHT22;5534;48.784;9.190;2023-08-21T09:36:23;30.40;99.90
10964;DHT22;5534;48.784;9.190;2023-08-21T09:38:51;30.50;99.90
10964;DHT22;5534;48.784;9.190;2023-08-21T09:41:21;30.70;99.90
10964;DHT22;5534;48.784;9.190;2023-08-21T09:43:48;30.90;99.90
10964;DHT22;5534;48.784;9.190;2023-08-21T09:46:15;31.10;99.90
10964;DHT22;5534;48.784;9.190;2023-08-21T09:48:44;31.20;99.90
10964;DHT22;5534;48.784;9.190;2023-08-21T09:51:10;30.90;99.90
10964;DHT22;5534;48.784;9.190;2023-08-21T09:53:37;30.80;99.90
10964;DHT22;5534;48.784;9.190;2023-08-21T09:56:05;30.70;99.90
10964;DHT22;5534;48.784;9.190;2023-08-21T09:58:31;30.60;99.90
10964;DHT22;5534;48.784;9.190;2023-08-21T10:00:59;30.50;99.90
10964;DHT22;5534;48.784;9.190;2023-08-21T10:03:26;30.50;99.90
10964;DHT22;5534;48.784;9.190;2023-08-21T10:05:55;30.60;99.90
10964;DHT22;5534;48.784;9.190;2023-08-21T10:08:24;30.80;99.90
10964;DHT22;5534;48.784;9.190;2023-08-21T10:10:51;30.90;99.90
10964;DHT22;5534;48.784;9.190;2023-08-21T10:13:17;30.80;99.90
10964;DHT22;5534;48.784;9.190;2023-08-21T10:15:44;30.70;99.90
10964;DHT22;5534;48.784;9.190;2023-08-21T10:18:25;30.80;99.90
10964;DHT22;5534;48.784;9.190;2023-08-21T10:20:54;30.80;99.90
10964;DHT22;5534;48.784;9.190;2023-08-21T10:23:25;30.80;99.90
10964;DHT22;5534;48.784;9.190;2023-08-21T10:25:59;30.80;99.90
10964;DHT22;5534;48.784;9.190;2023-08-21T10:28:25;30.70;99.90
10964;DHT22;5534;48.784;9.190;2023-08-21T10:30:51;30.70;99.90
10964;DHT22;5534;48.784;9.190;2023-08-21T10:33:17;30.80;99.90
10964;DHT22;5534;48.784;9.190;2023-08-21T10:36:04;30.90;99.90
10964;DHT22;5534;48.784;9.190;2023-08-21T10:38:30;31.00;99.90
10964;DHT22;5534;48.784;9.190;2023-08-21T10:41:08;31.00;99.90
10964;DHT22;5534;48.784;9.190;2023-08-21T10:46:07;31.20;99.90
10964;DHT22;5534;48.784;9.190;2023-08-21T10:48:35;31.30;99.90
10964;DHT22;5534;48.784;9.190;2023-08-21T10:51:05;31.30;99.90
10964;DHT22;5534;48.784;9.190;2023-08-21T10:53:32;31.20;99.90
10964;DHT22;5534;48.784;9.190;2023-08-21T10:56:05;31.00;99.90
10964;DHT22;5534;48.784;9.190;2023-08-21T10:58:38;31.00;99.90
10964;DHT22;5534;48.784;9.190;2023-08-21T11:01:03;31.10;99.90
10964;DHT22;5534;48.784;9.190;2023-08-21T11:03:29;31.30;99.90
10964;DHT22;5534;48.784;9.190;2023-08-21T11:06:07;31.30;99.90
10964;DHT22;5534;48.784;9.190;2023-08-21T11:08:33;31.40;99.90
10964;DHT22;5534;48.784;9.190;2023-08-21T11:11:01;31.60;99.90
10964;DHT22;5534;48.784;9.190;2023-08-21T11:13:27;31.80;99.90
10964;DHT22;5534;48.784;9.190;2023-08-21T11:16:04;31.70;99.90
10964;DHT22;5534;48.784;9.190;2023-08-21T11:18:39;31.60;99.90
10964;DHT22;5534;48.784;9.190;2023-08-21T11:21:09;31.70;99.90
10964;DHT22;5534;48.784;9.190;2023-08-21T11:23:37;31.70;99.90
10964;DHT22;5534;48.784;9.190;2023-08-21T11:26:04;31.70;99.90
10964;DHT22;5534;48.784;9.190;2023-08-21T11:28:30;31.70;99.90
10964;DHT22;5534;48.784;9.190;2023-08-21T11:30:57;31.80;99.90
10964;DHT22;5534;48.784;9.190;2023-08-21T11:33:23;31.80;99.90
10964;DHT22;5534;48.784;9.190;2023-08-21T11:35:49;31.80;99.90
10964;DHT22;5534;48.784;9.190;2023-08-21T11:38:21;31.80;99.90
10964;DHT22;5534;48.784;9.190;2023-08-21T11:40:58;31.80;99.90
10964;DHT22;5534;48.784;9.190;2023-08-21T11:43:56;31.70;99.90
10964;DHT22;5534;48.784;9.190;2023-08-21T11:46:22;31.70;99.90
10964;DHT22;5534;48.784;9.190;2023-08-21T11:48:48;31.80;99.90
10964;DHT22;5534;48.784;9.190;2023-08-21T11:51:15;31.80;99.90
10964;DHT22;5534;48.784;9.190;2023-08-21T11:53:42;31.70;99.90
10964;DHT22;5534;48.784;9.190;2023-08-21T11:56:16;31.80;99.90
10964;DHT22;5534;48.784;9.190;2023-08-21T11:58:46;32.00;99.90
10964;DHT22;5534;48.784;9.190;2023-08-21T12:01:19;32.10;99.90
10964;DHT22;5534;48.784;9.190;2023-08-21T12:03:45;32.20;99.90
10964;DHT22;5534;48.784;9.190;2023-08-21T12:06:11;32.30;99.90
10964;DHT22;5534;48.784;9.190;2023-08-21T12:08:38;32.40;99.90
10964;DHT22;5534;48.784;9.190;2023-08-21T12:11:05;32.50;99.90
10964;DHT22;5534;48.784;9.190;2023-08-21T12:13:31;32.60;99.90
10964;DHT22;5534;48.784;9.190;2023-08-21T12:15:57;32.60;99.90
10964;DHT22;5534;48.784;9.190;2023-08-21T12:18:23;32.30;99.90
10964;DHT22;5534;48.784;9.190;2023-08-21T12:20:49;32.20;99.90
10964;DHT22;5534;48.784;9.190;2023-08-21T12:23:15;32.20;99.90
10964;DHT22;5534;48.784;9.190;2023-08-21T12:25:40;32.20;99.90
10964;DHT22;5534;48.784;9.190;2023-08-21T12:28:07;32.20;99.90
10964;DHT22;5534;48.784;9.190;2023-08-21T12:30:34;32.20;99.90
10964;DHT22;5534;48.784;9.190;2023-08-21T12:33:00;32.30;99.90
10964;DHT22;5534;48.784;9.190;2023-08-21T12:35:26;32.40;99.90
10964;DHT22;5534;48.784;9.190;2023-08-21T12:37:57;32.60;99.90
10964;DHT22;5534;48.784;9.190;2023-08-21T12:40:23;32.60;99.90
10964;DHT22;5534;48.784;9.190;2023-08-21T12:42:49;32.40;99.90
10964;DHT22;5534;48.784;9.190;2023-08-21T12:45:16;32.40;99.90
10964;DHT22;5534;48.784;9.190;2023-08-21T12:47:42;32.40;99.90
10964;DHT22;5534;48.784;9.190;2023-08-21T12:50:08;32.30;99.90
10964;DHT22;5534;48.784;9.190;2023-08-21T12:52:34;32.20;99.90
10964;DHT22;5534;48.784;9.190;2023-08-21T12:55:00;32.20;99.90
10964;DHT22;5534;48.784;9.190;2023-08-21T12:57:29;32.10;99.90
10964;DHT22;5534;48.784;9.190;2023-08-21T12:59:56;32.00;99.90
10964;DHT22;5534;48.784;9.190;2023-08-21T13:02:22;32.00;99.90
10964;DHT22;5534;48.784;9.190;2023-08-21T13:04:49;32.10;99.90
10964;DHT22;5534;48.784;9.190;2023-08-21T13:07:15;32.30;99.90
10964;DHT22;5534;48.784;9.190;2023-08-21T13:09:40;32.50;99.90
10964;DHT22;5534;48.784;9.190;2023-08-21T13:12:06;32.60;99.90
10964;DHT22;5534;48.784;9.190;2023-08-21T13:14:34;32.50;99.90
10964;DHT22;5534;48.784;9.190;2023-08-21T13:17:00;32.50;99.90
10964;DHT22;5534;48.784;9.190;2023-08-21T13:19:26;32.50;99.90
10964;DHT22;5534;48.784;9.190;2023-08-21T13:21:51;32.70;99.90
10964;DHT22;5534;48.784;9.190;2023-08-21T13:24:18;32.70;99.90
10964;DHT22;5534;48.784;9.190;2023-08-21T13:26:44;32.60;99.90
10964;DHT22;5534;48.784;9.190;2023-08-21T13:29:10;32.40;99.90
10964;DHT22;5534;48.784;9.190;2023-08-21T13:31:36;32.30;99.90
10964;DHT22;5534;48.784;9.190;2023-08-21T13:34:02;32.10;99.90
10964;DHT22;5534;48.784;9.190;2023-08-21T13:36:27;32.10;99.90
10964;DHT22;5534;48.784;9.190;2023-08-21T13:38:53;32.10;99.90
10964;DHT22;5534;48.784;9.190;2023-08-21T13:41:19;32.00;99.90
10964;DHT22;5534;48.784;9.190;2023-08-21T13:43:45;32.00;99.90
10964;DHT22;5534;48.784;9.190;2023-08-21T13:46:11;32.20;99.90
10964;DHT22;5534;48.784;9.190;2023-08-21T13:48:36;32.30;99.90
10964;DHT22;5534;48.784;9.190;2023-08-21T13:51:02;32.30;99.90
10964;DHT22;5534;48.784;9.190;2023-08-21T13:53:28;32.30;99.90
10964;DHT22;5534;48.784;9.190;2023-08-21T13:55:54;32.20;99.90
10964;DHT22;5534;48.784;9.190;2023-08-21T13:58:20;32.10;99.90
10964;DHT22;5534;48.784;9.190;2023-08-21T14:00:46;32.10;99.90
10964;DHT22;5534;48.784;9.190;2023-08-21T14:03:12;32.20;99.90
10964;DHT22;5534;48.784;9.190;2023-08-21T14:05:38;32.30;99.90
10964;DHT22;5534;48.784;9.190;2023-08-21T14:08:04;32.30;99.90
10964;DHT22;5534;48.784;9.190;2023-08-21T14:10:30;32.30;99.90
10964;DHT22;5534;48.784;9.190;2023-08-21T14:12:59;32.10;99.90
10964;DHT22;5534;48.784;9.190;2023-08-21T14:15:24;32.00;99.90
10964;DHT22;5534;48.784;9.190;2023-08-21T14:17:50;31.90;99.90
10964;DHT22;5534;48.784;9.190;2023-08-21T14:20:17;31.90;99.90
10964;DHT22;5534;48.784;9.190;2023-08-21T14:22:42;31.80;99.90
10964;DHT22;5534;48.784;9.190;2023-08-21T14:25:09;31.80;99.90
10964;DHT22;5534;48.784;9.190;2023-08-21T14:27:36;31.80;99.90
10964;DHT22;5534;48.784;9.190;2023-08-21T14:30:03;31.90;99.90
10964;DHT22;5534;48.784;9.190;2023-08-21T14:32:29;32.10;99.90
10964;DHT22;5534;48.784;9.190;2023-08-21T14:34:55;32.10;99.90
10964;DHT22;5534;48.784;9.190;2023-08-21T14:37:21;32.10;99.90
10964;DHT22;5534;48.784;9.190;2023-08-21T14:39:49;32.20;99.90
10964;DHT22;5534;48.784;9.190;2023-08-21T14:42:15;32.30;99.90
10964;DHT22;5534;48.784;9.190;2023-08-21T14:44:41;32.30;99.90
10964;DHT22;5534;48.784;9.190;2023-08-21T14:47:07;32.30;99.90
10964;DHT22;5534;48.784;9.190;2023-08-21T14:49:34;32.20;99.90
10964;DHT22;5534;48.784;9.190;2023-08-21T14:52:00;32.20;99.90
10964;DHT22;5534;48.784;9.190;2023-08-21T14:54:27;32.30;99.90
10964;DHT22;5534;48.784;9.190;2023-08-21T14:56:52;32.30;99.90
10964;DHT22;5534;48.784;9.190;2023-08-21T14:59:18;32.30;99.90
10964;DHT22;5534;48.784;9.190;2023-08-21T15:01:44;32.30;99.90
10964;DHT22;5534;48.784;9.190;2023-08-21T15:04:10;32.30;99.90
10964;DHT22;5534;48.784;9.190;2023-08-21T15:06:38;32.30;99.90
10964;DHT22;5534;48.784;9.190;2023-08-21T15:09:05;32.30;99.90
10964;DHT22;5534;48.784;9.190;2023-08-21T15:11:32;32.20;99.90
10964;DHT22;5534;48.784;9.190;2023-08-21T15:14:00;32.20;99.90
10964;DHT22;5534;48.784;9.190;2023-08-21T15:16:26;32.30;99.90
10964;DHT22;5534;48.784;9.190;2023-08-21T15:18:51;32.20;99.90
10964;DHT22;5534;48.784;9.190;2023-08-21T15:21:18;32.20;99.90
10964;DHT22;5534;48.784;9.190;2023-08-21T15:23:45;32.20;99.90
10964;DHT22;5534;48.784;9.190;2023-08-21T15:26:11;32.30;99.90
10964;DHT22;5534;48.784;9.190;2023-08-21T15:28:37;32.30;99.90
10964;DHT22;5534;48.784;9.190;2023-08-21T15:31:02;32.30;99.90
10964;DHT22;5534;48.784;9.190;2023-08-21T15:33:29;32.30;99.90
10964;DHT22;5534;48.784;9.190;2023-08-21T15:35:54;32.30;99.90
10964;DHT22;5534;48.784;9.190;2023-08-21T15:38:20;32.20;99.90
10964;DHT22;5534;48.784;9.190;2023-08-21T15:40:46;32.10;99.90
10964;DHT22;5534;48.784;9.190;2023-08-21T15:43:13;32.10;99.90
10964;DHT22;5534;48.784;9.190;2023-08-21T15:45:39;32.00;99.90
10964;DHT22;5534;48.784;9.190;2023-08-21T15:48:04;32.10;99.90